< < Back
Terminal Aerodrome Forecast


Current Version              Previous Versions:   1  2  3  4  5  6  7  8  9  

Terminal Aerodrome Forecast

212
FTUS42 KFFC 261743
TAFMCN
TAF
KMCN 261743Z 2618/2718 31008KT 6SM BR BKN020
      TEMPO 2618/2621 SCT020
     FM270000 32007KT P6SM BKN025
     FM270300 32007KT P6SM SCT040
     FM271500 35008KT P6SM SCT250=

Latest METAR

721
SAUS80 KWBC 270400 RRC
MTRMCN
METAR KMCN 270353Z AUTO 35005KT 10SM BKN036 03/01 A3017 RMK AO2 SLP218
T00330006 TSNO


USA.gov is the U.S. government's official web portal to all federal, state and local government web resources and services.